AAL1721 KBOS-KDCA
Flight info
| Callsign | AAL1721 |
|---|---|
| Flight time | 1h 29m |
| Altitude | 34000 |
| Route | SSOXS7 SSOXS Q167 ZIZZI KNUKK ATR LAFLN DEALE3 |
| Aircraft | B738/M-SDE2E3FGHIRWXY/LB1 |
Departure
| Time | 2026-05-05 22:36 |
|---|---|
| Airport | Boston Logan International Airport (KBOS) |
Arrival
| Time | 2026-05-06 00:05 |
|---|---|
| Airport | Ronald Reagan Washington National Airport (KDCA) |
| Time | Latitude | Longitude | Altitude | Speed | Heading |
|---|---|---|---|---|---|
| 2026-05-05 22:08 | 42.36546 | -71.01559 | 22 ft | 0 kts | 50° |
| 2026-05-05 22:15 | 42.36542 | -71.01566 | 25 ft | 3 kts | 50° |
| 2026-05-05 22:16 | 42.36530 | -71.01586 | 22 ft | 3 kts | 50° |
| 2026-05-05 22:16 | 42.36517 | -71.01605 | 23 ft | 3 kts | 50° |
| 2026-05-05 22:16 | 42.36509 | -71.01618 | 25 ft | 0 kts | 50° |
| 2026-05-05 22:17 | 42.36509 | -71.01619 | 25 ft | 0 kts | 50° |
| 2026-05-05 22:17 | 42.36503 | -71.01629 | 22 ft | 3 kts | 50° |
| 2026-05-05 22:17 | 42.36492 | -71.01647 | 21 ft | 2 kts | 50° |
| 2026-05-05 22:17 | 42.36483 | -71.01660 | 23 ft | 0 kts | 50° |
| 2026-05-05 22:19 | 42.36484 | -71.01655 | 22 ft | 2 kts | 73° |
| 2026-05-05 22:19 | 42.36478 | -71.01639 | 23 ft | 2 kts | 124° |
| 2026-05-05 22:19 | 42.36467 | -71.01618 | 22 ft | 3 kts | 124° |
| 2026-05-05 22:19 | 42.36456 | -71.01595 | 21 ft | 3 kts | 123° |
| 2026-05-05 22:20 | 42.36444 | -71.01571 | 22 ft | 4 kts | 123° |
| 2026-05-05 22:20 | 42.36429 | -71.01543 | 21 ft | 4 kts | 127° |
| 2026-05-05 22:20 | 42.36406 | -71.01485 | 21 ft | 15 kts | 102° |
| 2026-05-05 22:20 | 42.36492 | -71.01351 | 22 ft | 26 kts | 25° |
| 2026-05-05 22:21 | 42.36671 | -71.01254 | 25 ft | 21 kts | 11° |
| 2026-05-05 22:21 | 42.36763 | -71.01255 | 25 ft | 11 kts | 353° |
| 2026-05-05 22:21 | 42.36818 | -71.01288 | 25 ft | 7 kts | 352° |
| 2026-05-05 22:21 | 42.36864 | -71.01249 | 23 ft | 12 kts | 42° |
| 2026-05-05 22:22 | 42.36943 | -71.01156 | 23 ft | 16 kts | 40° |
| 2026-05-05 22:22 | 42.37032 | -71.01080 | 22 ft | 15 kts | 24° |
| 2026-05-05 22:22 | 42.37110 | -71.01030 | 20 ft | 0 kts | 26° |
| 2026-05-05 22:22 | 42.37113 | -71.01027 | 20 ft | 1 kts | 27° |
| 2026-05-05 22:23 | 42.37122 | -71.01022 | 21 ft | 2 kts | 25° |
| 2026-05-05 22:23 | 42.37136 | -71.01013 | 20 ft | 2 kts | 25° |
| 2026-05-05 22:23 | 42.37138 | -71.01011 | 20 ft | 1 kts | 26° |
| 2026-05-05 22:23 | 42.37158 | -71.00997 | 20 ft | 5 kts | 26° |
| 2026-05-05 22:24 | 42.37193 | -71.00974 | 20 ft | 6 kts | 25° |
| 2026-05-05 22:24 | 42.37241 | -71.00944 | 20 ft | 12 kts | 24° |
| 2026-05-05 22:24 | 42.37338 | -71.00889 | 19 ft | 18 kts | 22° |
| 2026-05-05 22:24 | 42.37478 | -71.00821 | 21 ft | 19 kts | 20° |
| 2026-05-05 22:25 | 42.37594 | -71.00764 | 22 ft | 17 kts | 19° |
| 2026-05-05 22:25 | 42.37693 | -71.00716 | 28 ft | 8 kts | 25° |
| 2026-05-05 22:25 | 42.37705 | -71.00708 | 28 ft | 0 kts | 25° |
| 2026-05-05 22:25 | 42.37709 | -71.00707 | 26 ft | 2 kts | 17° |
| 2026-05-05 22:26 | 42.37723 | -71.00701 | 27 ft | 2 kts | 18° |
| 2026-05-05 22:26 | 42.37736 | -71.00694 | 27 ft | 2 kts | 21° |
| 2026-05-05 22:26 | 42.37749 | -71.00688 | 27 ft | 2 kts | 19° |
| 2026-05-05 22:26 | 42.37769 | -71.00679 | 27 ft | 4 kts | 19° |
| 2026-05-05 22:27 | 42.37799 | -71.00663 | 27 ft | 5 kts | 20° |
| 2026-05-05 22:27 | 42.37817 | -71.00654 | 27 ft | 0 kts | 26° |
| 2026-05-05 22:27 | 42.37818 | -71.00652 | 27 ft | 1 kts | 29° |
| 2026-05-05 22:27 | 42.37823 | -71.00648 | 27 ft | 0 kts | 33° |
| 2026-05-05 22:28 | 42.37828 | -71.00643 | 27 ft | 3 kts | 37° |
| 2026-05-05 22:28 | 42.37833 | -71.00635 | 27 ft | 0 kts | 50° |
| 2026-05-05 22:29 | 42.37839 | -71.00619 | 26 ft | 5 kts | 69° |
| 2026-05-05 22:29 | 42.37839 | -71.00588 | 29 ft | 0 kts | 103° |
| 2026-05-05 22:29 | 42.37836 | -71.00575 | 28 ft | 0 kts | 105° |
| 2026-05-05 22:33 | 42.37835 | -71.00570 | 30 ft | 4 kts | 105° |
| 2026-05-05 22:33 | 42.37803 | -71.00485 | 24 ft | 11 kts | 144° |
| 2026-05-05 22:33 | 42.37764 | -71.00485 | 24 ft | 0 kts | 197° |
| 2026-05-05 22:35 | 42.37733 | -71.00500 | 25 ft | 26 kts | 200° |
| 2026-05-05 22:36 | 42.37226 | -71.00745 | 17 ft | 125 kts | 201° |
| 2026-05-05 22:36 | 42.36243 | -71.01180 | 567 ft | 170 kts | 197° |
| 2026-05-05 22:36 | 42.34995 | -71.01692 | 1405 ft | 196 kts | 195° |
| 2026-05-05 22:36 | 42.33710 | -71.01452 | 2360 ft | 202 kts | 159° |
| 2026-05-05 22:37 | 42.32609 | -70.99972 | 2766 ft | 240 kts | 134° |
| 2026-05-05 22:37 | 42.31579 | -70.98126 | 3389 ft | 251 kts | 135° |
| 2026-05-05 22:37 | 42.30752 | -70.95974 | 4078 ft | 272 kts | 105° |
| 2026-05-05 22:37 | 42.30875 | -70.93407 | 4923 ft | 278 kts | 78° |
| 2026-05-05 22:38 | 42.31360 | -70.90852 | 5670 ft | 283 kts | 76° |
| 2026-05-05 22:38 | 42.31865 | -70.88264 | 6394 ft | 287 kts | 77° |
| 2026-05-05 22:38 | 42.31864 | -70.85628 | 7052 ft | 286 kts | 110° |
| 2026-05-05 22:38 | 42.30866 | -70.83381 | 7796 ft | 278 kts | 140° |
| 2026-05-05 22:39 | 42.29240 | -70.81912 | 8218 ft | 288 kts | 164° |
| 2026-05-05 22:39 | 42.27294 | -70.81439 | 9008 ft | 283 kts | 191° |
| 2026-05-05 22:39 | 42.25428 | -70.82157 | 9866 ft | 279 kts | 213° |
| 2026-05-05 22:39 | 42.23841 | -70.83674 | 10540 ft | 288 kts | 223° |
| 2026-05-05 22:40 | 42.22241 | -70.85507 | 10822 ft | 313 kts | 225° |
| 2026-05-05 22:40 | 42.20581 | -70.87478 | 11555 ft | 322 kts | 225° |
| 2026-05-05 22:40 | 42.18893 | -70.89484 | 12509 ft | 324 kts | 224° |
| 2026-05-05 22:40 | 42.17190 | -70.91498 | 13446 ft | 327 kts | 224° |
| 2026-05-05 22:41 | 42.15489 | -70.93498 | 14238 ft | 331 kts | 224° |
| 2026-05-05 22:41 | 42.13738 | -70.95545 | 15019 ft | 335 kts | 224° |
| 2026-05-05 22:41 | 42.11962 | -70.97614 | 15803 ft | 339 kts | 224° |
| 2026-05-05 22:41 | 42.10162 | -70.99705 | 16568 ft | 344 kts | 224° |
| 2026-05-05 22:42 | 42.08337 | -71.01820 | 17337 ft | 348 kts | 224° |
| 2026-05-05 22:42 | 42.06489 | -71.03957 | 18104 ft | 353 kts | 224° |
| 2026-05-05 22:42 | 42.04614 | -71.06123 | 18746 ft | 358 kts | 224° |
| 2026-05-05 22:42 | 42.02710 | -71.08321 | 19432 ft | 362 kts | 224° |
| 2026-05-05 22:43 | 42.00787 | -71.10537 | 20067 ft | 366 kts | 224° |
| 2026-05-05 22:43 | 41.98837 | -71.12783 | 20697 ft | 371 kts | 225° |
| 2026-05-05 22:43 | 41.96862 | -71.15055 | 21311 ft | 376 kts | 225° |
| 2026-05-05 22:43 | 41.94862 | -71.17354 | 21910 ft | 380 kts | 225° |
| 2026-05-05 22:44 | 41.92843 | -71.19673 | 22520 ft | 384 kts | 225° |
| 2026-05-05 22:44 | 41.90798 | -71.22019 | 23101 ft | 389 kts | 225° |
| 2026-05-05 22:44 | 41.88729 | -71.24391 | 23636 ft | 393 kts | 225° |
| 2026-05-05 22:44 | 41.86636 | -71.26789 | 24123 ft | 396 kts | 225° |
| 2026-05-05 22:45 | 41.84559 | -71.29164 | 24646 ft | 399 kts | 225° |
| 2026-05-05 22:45 | 41.82437 | -71.31590 | 25150 ft | 402 kts | 225° |
| 2026-05-05 22:45 | 41.80299 | -71.34032 | 25624 ft | 405 kts | 225° |
| 2026-05-05 22:45 | 41.78142 | -71.36493 | 26088 ft | 408 kts | 225° |
| 2026-05-05 22:46 | 41.75969 | -71.38971 | 26549 ft | 411 kts | 226° |
| 2026-05-05 22:46 | 41.73780 | -71.41465 | 27008 ft | 415 kts | 226° |
| 2026-05-05 22:46 | 41.72323 | -71.43123 | 27293 ft | 417 kts | 226° |
| 2026-05-05 22:46 | 41.70106 | -71.45645 | 27727 ft | 420 kts | 226° |
| 2026-05-05 22:47 | 41.67870 | -71.48185 | 28165 ft | 422 kts | 226° |
| 2026-05-05 22:47 | 41.65619 | -71.50740 | 28604 ft | 425 kts | 226° |
| 2026-05-05 22:47 | 41.63359 | -71.53302 | 29049 ft | 427 kts | 226° |
| 2026-05-05 22:47 | 41.61085 | -71.55880 | 29414 ft | 430 kts | 226° |
| 2026-05-05 22:48 | 41.58788 | -71.58480 | 29764 ft | 434 kts | 226° |
| 2026-05-05 22:48 | 41.56467 | -71.61106 | 30105 ft | 437 kts | 226° |
| 2026-05-05 22:48 | 41.54134 | -71.63742 | 30393 ft | 440 kts | 226° |
| 2026-05-05 22:48 | 41.51822 | -71.66351 | 30695 ft | 443 kts | 226° |
| 2026-05-05 22:49 | 41.49460 | -71.69014 | 30985 ft | 446 kts | 226° |
| 2026-05-05 22:49 | 41.47086 | -71.71687 | 31282 ft | 448 kts | 226° |
| 2026-05-05 22:49 | 41.44688 | -71.74385 | 31560 ft | 451 kts | 226° |
| 2026-05-05 22:49 | 41.42284 | -71.77087 | 31838 ft | 453 kts | 226° |
| 2026-05-05 22:50 | 41.39873 | -71.79794 | 32118 ft | 455 kts | 226° |
| 2026-05-05 22:50 | 41.37447 | -71.82516 | 32412 ft | 457 kts | 226° |
| 2026-05-05 22:50 | 41.35015 | -71.85241 | 32691 ft | 458 kts | 226° |
| 2026-05-05 22:50 | 41.32575 | -71.87972 | 32965 ft | 458 kts | 226° |
| 2026-05-05 22:51 | 41.30132 | -71.90702 | 33225 ft | 458 kts | 226° |
| 2026-05-05 22:51 | 41.27684 | -71.93437 | 33480 ft | 459 kts | 226° |
| 2026-05-05 22:51 | 41.25263 | -71.96139 | 33729 ft | 459 kts | 226° |
| 2026-05-05 22:51 | 41.22786 | -71.98900 | 33935 ft | 458 kts | 226° |
| 2026-05-05 22:52 | 41.20370 | -72.01591 | 33913 ft | 459 kts | 226° |
| 2026-05-05 22:52 | 41.15489 | -72.07019 | 33935 ft | 457 kts | 226° |
| 2026-05-05 22:53 | 41.10618 | -72.12425 | 33938 ft | 456 kts | 226° |
| 2026-05-05 22:53 | 41.05752 | -72.17816 | 33935 ft | 455 kts | 226° |
| 2026-05-05 22:54 | 41.00891 | -72.23191 | 33935 ft | 455 kts | 226° |
| 2026-05-05 22:54 | 40.96031 | -72.28556 | 33936 ft | 456 kts | 226° |
| 2026-05-05 22:55 | 40.91147 | -72.33936 | 33933 ft | 458 kts | 225° |
| 2026-05-05 22:55 | 40.86246 | -72.39322 | 33934 ft | 458 kts | 225° |
| 2026-05-05 22:56 | 40.81351 | -72.44692 | 33933 ft | 457 kts | 225° |
| 2026-05-05 22:56 | 40.76532 | -72.49963 | 33922 ft | 443 kts | 225° |
| 2026-05-05 22:57 | 40.71821 | -72.55116 | 33933 ft | 439 kts | 225° |
| 2026-05-05 22:57 | 40.67138 | -72.60272 | 33948 ft | 438 kts | 226° |
| 2026-05-05 22:58 | 40.62543 | -72.65563 | 33945 ft | 438 kts | 227° |
| 2026-05-05 22:58 | 40.57969 | -72.70865 | 33948 ft | 439 kts | 227° |
| 2026-05-05 22:59 | 40.53371 | -72.76157 | 33938 ft | 439 kts | 227° |
| 2026-05-05 22:59 | 40.48763 | -72.81434 | 33947 ft | 440 kts | 226° |
| 2026-05-05 23:00 | 40.41827 | -72.89354 | 33954 ft | 440 kts | 226° |
| 2026-05-05 23:00 | 40.37195 | -72.94632 | 33939 ft | 441 kts | 226° |
| 2026-05-05 23:01 | 40.32565 | -72.99899 | 33946 ft | 440 kts | 226° |
| 2026-05-05 23:01 | 40.27931 | -73.05161 | 33939 ft | 440 kts | 226° |
| 2026-05-05 23:02 | 40.23327 | -73.10377 | 33946 ft | 440 kts | 226° |
| 2026-05-05 23:02 | 40.18695 | -73.15608 | 33940 ft | 439 kts | 226° |
| 2026-05-05 23:03 | 40.14074 | -73.20821 | 33940 ft | 438 kts | 226° |
| 2026-05-05 23:03 | 40.09462 | -73.26014 | 33947 ft | 436 kts | 226° |
| 2026-05-05 23:04 | 40.04860 | -73.31179 | 33940 ft | 436 kts | 226° |
| 2026-05-05 23:04 | 40.00285 | -73.36302 | 33952 ft | 435 kts | 226° |
| 2026-05-05 23:05 | 39.95685 | -73.41446 | 33949 ft | 435 kts | 225° |
| 2026-05-05 23:05 | 39.91087 | -73.46580 | 33955 ft | 435 kts | 225° |
| 2026-05-05 23:06 | 39.86480 | -73.51717 | 33951 ft | 436 kts | 225° |
| 2026-05-05 23:06 | 39.81865 | -73.56848 | 33954 ft | 436 kts | 225° |
| 2026-05-05 23:07 | 39.77252 | -73.61969 | 33953 ft | 436 kts | 225° |
| 2026-05-05 23:07 | 39.72633 | -73.67088 | 33963 ft | 436 kts | 225° |
| 2026-05-05 23:08 | 39.68047 | -73.72163 | 33948 ft | 436 kts | 225° |
| 2026-05-05 23:08 | 39.63428 | -73.77265 | 33958 ft | 435 kts | 225° |
| 2026-05-05 23:09 | 39.58810 | -73.82359 | 33962 ft | 435 kts | 225° |
| 2026-05-05 23:09 | 39.54202 | -73.87431 | 33969 ft | 434 kts | 225° |
| 2026-05-05 23:10 | 39.49603 | -73.92485 | 33960 ft | 433 kts | 225° |
| 2026-05-05 23:10 | 39.45012 | -73.97523 | 33970 ft | 432 kts | 225° |
| 2026-05-05 23:11 | 39.41199 | -74.03284 | 33931 ft | 416 kts | 244° |
| 2026-05-05 23:11 | 39.39941 | -74.06609 | 33301 ft | 409 kts | 251° |
| 2026-05-05 23:11 | 39.38873 | -74.10054 | 32234 ft | 417 kts | 252° |
| 2026-05-05 23:12 | 39.37807 | -74.13579 | 31281 ft | 424 kts | 252° |
| 2026-05-05 23:12 | 39.36731 | -74.17127 | 30642 ft | 422 kts | 251° |
| 2026-05-05 23:12 | 39.35659 | -74.20624 | 30304 ft | 413 kts | 251° |
| 2026-05-05 23:12 | 39.34608 | -74.24012 | 30162 ft | 399 kts | 251° |
| 2026-05-05 23:13 | 39.33581 | -74.27304 | 29665 ft | 394 kts | 251° |
| 2026-05-05 23:13 | 39.32555 | -74.30581 | 29021 ft | 392 kts | 251° |
| 2026-05-05 23:13 | 39.31533 | -74.33837 | 28427 ft | 390 kts | 251° |
| 2026-05-05 23:13 | 39.30513 | -74.37078 | 27880 ft | 387 kts | 251° |
| 2026-05-05 23:14 | 39.29507 | -74.40271 | 27368 ft | 383 kts | 251° |
| 2026-05-05 23:14 | 39.28505 | -74.43444 | 26857 ft | 380 kts | 251° |
| 2026-05-05 23:14 | 39.27511 | -74.46588 | 26349 ft | 377 kts | 251° |
| 2026-05-05 23:14 | 39.26537 | -74.49666 | 25869 ft | 374 kts | 251° |
| 2026-05-05 23:15 | 39.25557 | -74.52760 | 25382 ft | 371 kts | 251° |
| 2026-05-05 23:15 | 39.24585 | -74.55825 | 24914 ft | 368 kts | 251° |
| 2026-05-05 23:15 | 39.23616 | -74.58876 | 24448 ft | 365 kts | 250° |
| 2026-05-05 23:15 | 39.22655 | -74.61899 | 23995 ft | 362 kts | 251° |
| 2026-05-05 23:16 | 39.21702 | -74.64896 | 23541 ft | 360 kts | 250° |
| 2026-05-05 23:16 | 39.20755 | -74.67870 | 23030 ft | 357 kts | 250° |
| 2026-05-05 23:16 | 39.19815 | -74.70815 | 22546 ft | 354 kts | 250° |
| 2026-05-05 23:16 | 39.18883 | -74.73735 | 22056 ft | 351 kts | 250° |
| 2026-05-05 23:17 | 39.17958 | -74.76630 | 21572 ft | 348 kts | 250° |
| 2026-05-05 23:17 | 39.17040 | -74.79500 | 21097 ft | 345 kts | 250° |
| 2026-05-05 23:17 | 39.16128 | -74.82350 | 20642 ft | 343 kts | 250° |
| 2026-05-05 23:17 | 39.15221 | -74.85181 | 20182 ft | 340 kts | 250° |
| 2026-05-05 23:18 | 39.14320 | -74.87988 | 19734 ft | 338 kts | 250° |
| 2026-05-05 23:18 | 39.13426 | -74.90773 | 19290 ft | 336 kts | 250° |
| 2026-05-05 23:18 | 39.12535 | -74.93545 | 18868 ft | 333 kts | 250° |
| 2026-05-05 23:18 | 39.11649 | -74.96297 | 18430 ft | 331 kts | 249° |
| 2026-05-05 23:19 | 39.10778 | -74.98999 | 18120 ft | 319 kts | 249° |
| 2026-05-05 23:19 | 39.09950 | -75.01563 | 17567 ft | 312 kts | 249° |
| 2026-05-05 23:19 | 39.09122 | -75.04130 | 16887 ft | 309 kts | 249° |
| 2026-05-05 23:19 | 39.08299 | -75.06679 | 16218 ft | 307 kts | 249° |
| 2026-05-05 23:20 | 39.07481 | -75.09211 | 15658 ft | 305 kts | 249° |
| 2026-05-05 23:20 | 39.06671 | -75.11716 | 15131 ft | 301 kts | 249° |
| 2026-05-05 23:20 | 39.05869 | -75.14191 | 14598 ft | 298 kts | 249° |
| 2026-05-05 23:20 | 39.05074 | -75.16644 | 14064 ft | 296 kts | 249° |
| 2026-05-05 23:21 | 39.04284 | -75.19081 | 13531 ft | 295 kts | 249° |
| 2026-05-05 23:21 | 39.03491 | -75.21522 | 13028 ft | 295 kts | 249° |
| 2026-05-05 23:21 | 39.02700 | -75.23958 | 12513 ft | 296 kts | 249° |
| 2026-05-05 23:21 | 39.01901 | -75.26416 | 11948 ft | 300 kts | 249° |
| 2026-05-05 23:22 | 39.01097 | -75.28886 | 11509 ft | 299 kts | 249° |
| 2026-05-05 23:22 | 39.00296 | -75.31343 | 11106 ft | 296 kts | 249° |
| 2026-05-05 23:22 | 38.99499 | -75.33787 | 10998 ft | 302 kts | 249° |
| 2026-05-05 23:22 | 38.98667 | -75.36339 | 10966 ft | 315 kts | 249° |
| 2026-05-05 23:23 | 38.97811 | -75.38963 | 10957 ft | 321 kts | 249° |
| 2026-05-05 23:23 | 38.96947 | -75.41605 | 10942 ft | 320 kts | 249° |
| 2026-05-05 23:23 | 38.96087 | -75.44230 | 10944 ft | 319 kts | 249° |
| 2026-05-05 23:23 | 38.95223 | -75.46863 | 10946 ft | 320 kts | 249° |
| 2026-05-05 23:24 | 38.94358 | -75.49501 | 10952 ft | 320 kts | 249° |
| 2026-05-05 23:24 | 38.93492 | -75.52140 | 10947 ft | 321 kts | 249° |
| 2026-05-05 23:24 | 38.92608 | -75.54831 | 10960 ft | 331 kts | 249° |
| 2026-05-05 23:24 | 38.91708 | -75.57570 | 10955 ft | 332 kts | 249° |
| 2026-05-05 23:25 | 38.90813 | -75.60287 | 10950 ft | 330 kts | 249° |
| 2026-05-05 23:25 | 38.89917 | -75.63004 | 10953 ft | 330 kts | 249° |
| 2026-05-05 23:25 | 38.89023 | -75.65714 | 10966 ft | 329 kts | 249° |
| 2026-05-05 23:25 | 38.88140 | -75.68389 | 10966 ft | 329 kts | 248° |
| 2026-05-05 23:26 | 38.87247 | -75.71093 | 10973 ft | 329 kts | 249° |
| 2026-05-05 23:26 | 38.86357 | -75.73782 | 10961 ft | 325 kts | 248° |
| 2026-05-05 23:26 | 38.85479 | -75.76433 | 10979 ft | 322 kts | 249° |
| 2026-05-05 23:26 | 38.84592 | -75.79112 | 10981 ft | 329 kts | 248° |
| 2026-05-05 23:27 | 38.83697 | -75.81813 | 10976 ft | 331 kts | 249° |
| 2026-05-05 23:27 | 38.82795 | -75.84529 | 10963 ft | 328 kts | 248° |
| 2026-05-05 23:27 | 38.81903 | -75.87213 | 10964 ft | 327 kts | 249° |
| 2026-05-05 23:27 | 38.81010 | -75.89897 | 10972 ft | 327 kts | 249° |
| 2026-05-05 23:28 | 38.80118 | -75.92577 | 10966 ft | 327 kts | 248° |
| 2026-05-05 23:28 | 38.79226 | -75.95257 | 10972 ft | 327 kts | 248° |
| 2026-05-05 23:28 | 38.78333 | -75.97939 | 10971 ft | 327 kts | 248° |
| 2026-05-05 23:28 | 38.77449 | -76.00587 | 10971 ft | 328 kts | 248° |
| 2026-05-05 23:29 | 38.76550 | -76.03275 | 10972 ft | 328 kts | 248° |
| 2026-05-05 23:29 | 38.75758 | -76.06010 | 10957 ft | 328 kts | 258° |
| 2026-05-05 23:29 | 38.75597 | -76.08905 | 10973 ft | 327 kts | 274° |
| 2026-05-05 23:29 | 38.75832 | -76.11811 | 10969 ft | 327 kts | 276° |
| 2026-05-05 23:30 | 38.76122 | -76.14698 | 10924 ft | 326 kts | 277° |
| 2026-05-05 23:30 | 38.76319 | -76.16590 | 10786 ft | 320 kts | 277° |
| 2026-05-05 23:30 | 38.76606 | -76.19391 | 10577 ft | 313 kts | 276° |
| 2026-05-05 23:30 | 38.76879 | -76.22128 | 10365 ft | 307 kts | 276° |
| 2026-05-05 23:31 | 38.77143 | -76.24847 | 10157 ft | 308 kts | 276° |
| 2026-05-05 23:31 | 38.77402 | -76.27573 | 10023 ft | 309 kts | 276° |
| 2026-05-05 23:31 | 38.77659 | -76.30310 | 9979 ft | 309 kts | 276° |
| 2026-05-05 23:31 | 38.77915 | -76.33055 | 9980 ft | 313 kts | 276° |
| 2026-05-05 23:32 | 38.78173 | -76.35842 | 9969 ft | 315 kts | 276° |
| 2026-05-05 23:32 | 38.78430 | -76.38628 | 9960 ft | 314 kts | 276° |
| 2026-05-05 23:32 | 38.78686 | -76.41413 | 9954 ft | 316 kts | 276° |
| 2026-05-05 23:32 | 38.78939 | -76.44166 | 9944 ft | 304 kts | 276° |
| 2026-05-05 23:33 | 38.79183 | -76.46816 | 9949 ft | 297 kts | 275° |
| 2026-05-05 23:33 | 38.79422 | -76.49438 | 9960 ft | 297 kts | 275° |
| 2026-05-05 23:33 | 38.79661 | -76.52081 | 9960 ft | 299 kts | 275° |
| 2026-05-05 23:33 | 38.79864 | -76.54729 | 9957 ft | 299 kts | 272° |
| 2026-05-05 23:34 | 38.79963 | -76.57366 | 9947 ft | 299 kts | 271° |
| 2026-05-05 23:34 | 38.80037 | -76.60063 | 9953 ft | 299 kts | 271° |
| 2026-05-05 23:34 | 38.80110 | -76.62696 | 9948 ft | 299 kts | 271° |
| 2026-05-05 23:34 | 38.80189 | -76.65368 | 9946 ft | 299 kts | 271° |
| 2026-05-05 23:35 | 38.80274 | -76.68034 | 9954 ft | 299 kts | 271° |
| 2026-05-05 23:35 | 38.80361 | -76.70700 | 9951 ft | 299 kts | 271° |
| 2026-05-05 23:35 | 38.80448 | -76.73372 | 9942 ft | 299 kts | 271° |
| 2026-05-05 23:35 | 38.80542 | -76.76033 | 9941 ft | 299 kts | 274° |
| 2026-05-05 23:36 | 38.81071 | -76.78614 | 9953 ft | 302 kts | 292° |
| 2026-05-05 23:36 | 38.82223 | -76.80877 | 9945 ft | 306 kts | 305° |
| 2026-05-05 23:36 | 38.83570 | -76.83000 | 9942 ft | 307 kts | 306° |
| 2026-05-05 23:36 | 38.84922 | -76.85122 | 9943 ft | 307 kts | 305° |
| 2026-05-05 23:37 | 38.86264 | -76.87255 | 9944 ft | 308 kts | 305° |
| 2026-05-05 23:37 | 38.87604 | -76.89401 | 9909 ft | 305 kts | 305° |
| 2026-05-05 23:37 | 38.89019 | -76.91427 | 9629 ft | 305 kts | 310° |
| 2026-05-05 23:37 | 38.90516 | -76.93331 | 9295 ft | 296 kts | 311° |
| 2026-05-05 23:38 | 38.91947 | -76.95103 | 9138 ft | 277 kts | 311° |
| 2026-05-05 23:38 | 38.93318 | -76.96812 | 8684 ft | 275 kts | 310° |
| 2026-05-05 23:38 | 38.94690 | -76.98544 | 8267 ft | 277 kts | 310° |
| 2026-05-05 23:38 | 38.96055 | -77.00279 | 7942 ft | 275 kts | 310° |
| 2026-05-05 23:39 | 38.97410 | -77.02006 | 7603 ft | 275 kts | 309° |
| 2026-05-05 23:39 | 38.98773 | -77.03750 | 7238 ft | 276 kts | 309° |
| 2026-05-05 23:39 | 39.00110 | -77.05463 | 6899 ft | 273 kts | 309° |
| 2026-05-05 23:39 | 39.01465 | -77.07199 | 6519 ft | 269 kts | 309° |
| 2026-05-05 23:40 | 39.02769 | -77.08871 | 6026 ft | 268 kts | 309° |
| 2026-05-05 23:40 | 39.04082 | -77.10598 | 5506 ft | 266 kts | 306° |
| 2026-05-05 23:40 | 39.05306 | -77.12384 | 4995 ft | 265 kts | 304° |
| 2026-05-05 23:40 | 39.06415 | -77.14191 | 4503 ft | 258 kts | 291° |
| 2026-05-05 23:41 | 39.06842 | -77.16348 | 3981 ft | 244 kts | 262° |
| 2026-05-05 23:41 | 39.06368 | -77.18370 | 3506 ft | 233 kts | 234° |
| 2026-05-05 23:41 | 39.05165 | -77.19693 | 3113 ft | 229 kts | 204° |
| 2026-05-05 23:41 | 39.03579 | -77.19937 | 3019 ft | 232 kts | 176° |
| 2026-05-05 23:42 | 39.02046 | -77.19473 | 2969 ft | 220 kts | 170° |
| 2026-05-05 23:42 | 39.00599 | -77.18947 | 2944 ft | 214 kts | 169° |
| 2026-05-05 23:42 | 38.99182 | -77.18321 | 2950 ft | 217 kts | 166° |
| 2026-05-05 23:42 | 38.97764 | -77.17627 | 2941 ft | 218 kts | 165° |
| 2026-05-05 23:43 | 38.96397 | -77.16753 | 2693 ft | 227 kts | 146° |
| 2026-05-05 23:43 | 38.95276 | -77.15429 | 2567 ft | 212 kts | 143° |
| 2026-05-05 23:43 | 38.94241 | -77.14079 | 2221 ft | 208 kts | 142° |
| 2026-05-05 23:43 | 38.93173 | -77.12880 | 1954 ft | 200 kts | 149° |
| 2026-05-05 23:44 | 38.92046 | -77.11895 | 1678 ft | 191 kts | 155° |
| 2026-05-05 23:44 | 38.90988 | -77.10907 | 1380 ft | 190 kts | 134° |
| 2026-05-05 23:44 | 38.90468 | -77.09413 | 1237 ft | 182 kts | 110° |
| 2026-05-05 23:44 | 38.90233 | -77.07816 | 1054 ft | 185 kts | 100° |
| 2026-05-05 23:45 | 38.89934 | -77.06258 | 863 ft | 172 kts | 131° |
| 2026-05-05 23:45 | 38.89096 | -77.05244 | 713 ft | 167 kts | 143° |
| 2026-05-05 23:45 | 38.88366 | -77.04124 | 524 ft | 156 kts | 134° |
| 2026-05-05 23:45 | 38.87572 | -77.03513 | 568 ft | 121 kts | 178° |
| 2026-05-05 23:46 | 38.86791 | -77.03712 | 357 ft | 111 kts | 197° |
| 2026-05-05 23:46 | 38.86076 | -77.03833 | 213 ft | 102 kts | 179° |
| 2026-05-05 23:46 | 38.85209 | -77.03704 | 650 ft | 133 kts | 173° |
| 2026-05-05 23:46 | 38.84312 | -77.03550 | 1425 ft | 144 kts | 180° |
| 2026-05-05 23:47 | 38.83117 | -77.03443 | 1854 ft | 195 kts | 181° |
| 2026-05-05 23:47 | 38.81706 | -77.03345 | 2777 ft | 213 kts | 181° |
| 2026-05-05 23:47 | 38.80133 | -77.03247 | 3601 ft | 235 kts | 182° |
| 2026-05-05 23:47 | 38.78476 | -77.03174 | 4772 ft | 240 kts | 182° |
| 2026-05-05 23:48 | 38.76812 | -77.03113 | 4205 ft | 250 kts | 183° |
| 2026-05-05 23:48 | 38.74872 | -77.03098 | 2723 ft | 292 kts | 184° |
| 2026-05-05 23:48 | 38.72943 | -77.03126 | 2461 ft | 269 kts | 183° |
| 2026-05-05 23:48 | 38.71034 | -77.03213 | 1890 ft | 269 kts | 184° |
| 2026-05-05 23:49 | 38.69284 | -77.02851 | 2251 ft | 245 kts | 167° |
| 2026-05-05 23:49 | 38.67733 | -77.02364 | 2481 ft | 215 kts | 182° |
| 2026-05-05 23:49 | 38.66377 | -77.02769 | 2492 ft | 197 kts | 215° |
| 2026-05-05 23:49 | 38.65550 | -77.04110 | 2594 ft | 195 kts | 248° |
| 2026-05-05 23:50 | 38.65536 | -77.05886 | 2811 ft | 211 kts | 276° |
| 2026-05-05 23:50 | 38.65914 | -77.07710 | 2973 ft | 214 kts | 278° |
| 2026-05-05 23:50 | 38.66331 | -77.09544 | 2975 ft | 215 kts | 279° |
| 2026-05-05 23:50 | 38.66753 | -77.11378 | 2981 ft | 214 kts | 279° |
| 2026-05-05 23:51 | 38.67169 | -77.13167 | 2973 ft | 210 kts | 279° |
| 2026-05-05 23:51 | 38.67595 | -77.14995 | 3002 ft | 214 kts | 279° |
| 2026-05-05 23:51 | 38.68027 | -77.16821 | 2997 ft | 219 kts | 279° |
| 2026-05-05 23:51 | 38.68478 | -77.18701 | 2985 ft | 222 kts | 279° |
| 2026-05-05 23:52 | 38.68936 | -77.20593 | 2982 ft | 223 kts | 278° |
| 2026-05-05 23:52 | 38.69442 | -77.22470 | 2971 ft | 226 kts | 289° |
| 2026-05-05 23:52 | 38.70534 | -77.23950 | 2974 ft | 237 kts | 322° |
| 2026-05-05 23:52 | 38.72107 | -77.24672 | 3007 ft | 244 kts | 338° |
| 2026-05-05 23:53 | 38.73748 | -77.25208 | 2956 ft | 242 kts | 339° |
| 2026-05-05 23:53 | 38.75362 | -77.25733 | 2966 ft | 239 kts | 339° |
| 2026-05-05 23:53 | 38.76967 | -77.26248 | 2981 ft | 239 kts | 339° |
| 2026-05-05 23:53 | 38.78591 | -77.26757 | 2976 ft | 240 kts | 340° |
| 2026-05-05 23:54 | 38.80208 | -77.27280 | 2983 ft | 241 kts | 339° |
| 2026-05-05 23:54 | 38.81875 | -77.27692 | 2981 ft | 247 kts | 347° |
| 2026-05-05 23:54 | 38.83562 | -77.27881 | 2989 ft | 246 kts | 349° |
| 2026-05-05 23:54 | 38.85300 | -77.28070 | 2980 ft | 247 kts | 349° |
| 2026-05-05 23:55 | 38.87014 | -77.28267 | 2999 ft | 247 kts | 349° |
| 2026-05-05 23:55 | 38.88724 | -77.28467 | 3002 ft | 247 kts | 349° |
| 2026-05-05 23:55 | 38.90403 | -77.28667 | 2995 ft | 241 kts | 349° |
| 2026-05-05 23:55 | 38.91997 | -77.28848 | 2996 ft | 219 kts | 349° |
| 2026-05-05 23:56 | 38.93450 | -77.28998 | 2993 ft | 200 kts | 349° |
| 2026-05-05 23:56 | 38.94844 | -77.29132 | 2997 ft | 203 kts | 349° |
| 2026-05-05 23:56 | 38.96254 | -77.29277 | 2995 ft | 204 kts | 349° |
| 2026-05-05 23:56 | 38.97668 | -77.29410 | 2999 ft | 203 kts | 349° |
| 2026-05-05 23:57 | 38.99077 | -77.29534 | 2989 ft | 202 kts | 349° |
| 2026-05-05 23:57 | 39.00480 | -77.29664 | 2990 ft | 201 kts | 349° |
| 2026-05-05 23:57 | 39.01872 | -77.29784 | 3001 ft | 200 kts | 349° |
| 2026-05-05 23:57 | 39.03268 | -77.29905 | 3001 ft | 200 kts | 349° |
| 2026-05-05 23:58 | 39.04659 | -77.29738 | 2974 ft | 205 kts | 21° |
| 2026-05-05 23:58 | 39.05739 | -77.28576 | 3035 ft | 210 kts | 62° |
| 2026-05-05 23:58 | 39.06106 | -77.26822 | 3027 ft | 200 kts | 102° |
| 2026-05-05 23:58 | 39.05626 | -77.25267 | 3016 ft | 179 kts | 140° |
| 2026-05-05 23:59 | 39.04766 | -77.24141 | 3028 ft | 176 kts | 146° |
| 2026-05-05 23:59 | 39.03874 | -77.23076 | 3036 ft | 174 kts | 147° |
| 2026-05-05 23:59 | 39.02986 | -77.22020 | 3018 ft | 171 kts | 147° |
| 2026-05-05 23:59 | 39.02105 | -77.20973 | 3016 ft | 174 kts | 147° |
| 2026-05-06 00:00 | 39.01217 | -77.19914 | 3011 ft | 175 kts | 147° |
| 2026-05-06 00:00 | 39.00331 | -77.18852 | 2997 ft | 171 kts | 147° |
| 2026-05-06 00:00 | 38.99485 | -77.17834 | 3006 ft | 159 kts | 148° |
| 2026-05-06 00:00 | 38.98710 | -77.16900 | 2933 ft | 147 kts | 148° |
| 2026-05-06 00:01 | 38.97965 | -77.16009 | 2871 ft | 146 kts | 149° |
| 2026-05-06 00:01 | 38.97238 | -77.15136 | 2790 ft | 144 kts | 149° |
| 2026-05-06 00:01 | 38.96490 | -77.14254 | 2614 ft | 146 kts | 151° |
| 2026-05-06 00:01 | 38.95663 | -77.13589 | 2430 ft | 137 kts | 162° |
| 2026-05-06 00:02 | 38.94835 | -77.13019 | 2275 ft | 133 kts | 163° |
| 2026-05-06 00:02 | 38.94020 | -77.12461 | 2079 ft | 134 kts | 163° |
| 2026-05-06 00:02 | 38.93212 | -77.11903 | 1910 ft | 130 kts | 162° |
| 2026-05-06 00:02 | 38.92405 | -77.11346 | 1739 ft | 131 kts | 162° |
| 2026-05-06 00:03 | 38.91607 | -77.10776 | 1568 ft | 134 kts | 156° |
| 2026-05-06 00:03 | 38.90926 | -77.09906 | 1342 ft | 144 kts | 131° |
| 2026-05-06 00:03 | 38.90458 | -77.08746 | 1209 ft | 155 kts | 117° |
| 2026-05-06 00:03 | 38.90265 | -77.07355 | 1032 ft | 154 kts | 114° |
| 2026-05-06 00:04 | 38.89682 | -77.06335 | 899 ft | 139 kts | 145° |
| 2026-05-06 00:04 | 38.88978 | -77.05474 | 701 ft | 137 kts | 140° |
| 2026-05-06 00:04 | 38.88304 | -77.04613 | 544 ft | 136 kts | 144° |
| 2026-05-06 00:04 | 38.87542 | -77.04005 | 392 ft | 123 kts | 174° |
| 2026-05-06 00:05 | 38.85934 | -77.03853 | 53 ft | 112 kts | 176° |
| 2026-05-06 00:05 | 38.85200 | -77.03765 | 28 ft | 99 kts | 176° |
| 2026-05-06 00:05 | 38.84671 | -77.03722 | 19 ft | 47 kts | 175° |
| 2026-05-06 00:06 | 38.84561 | -77.03712 | 20 ft | 5 kts | 178° |
| 2026-05-06 00:06 | 38.84527 | -77.03710 | 20 ft | 5 kts | 181° |
| 2026-05-06 00:06 | 38.84478 | -77.03711 | 19 ft | 10 kts | 185° |
| 2026-05-06 00:06 | 38.84414 | -77.03740 | 20 ft | 10 kts | 219° |
| 2026-05-06 00:07 | 38.84394 | -77.03783 | 21 ft | 0 kts | 253° |
| 2026-05-06 00:08 | 38.84418 | -77.03834 | 23 ft | 14 kts | 332° |
| 2026-05-06 00:08 | 38.84500 | -77.03852 | 20 ft | 0 kts | 355° |
| 2026-05-06 00:08 | 38.84502 | -77.03852 | 20 ft | 1 kts | 355° |
| 2026-05-06 00:09 | 38.84555 | -77.03858 | 19 ft | 12 kts | 354° |
| 2026-05-06 00:09 | 38.84656 | -77.03868 | 21 ft | 15 kts | 358° |
| 2026-05-06 00:09 | 38.84735 | -77.03911 | 20 ft | 13 kts | 301° |
| 2026-05-06 00:09 | 38.84816 | -77.03944 | 19 ft | 13 kts | 358° |
| 2026-05-06 00:10 | 38.84904 | -77.03960 | 18 ft | 13 kts | 352° |
| 2026-05-06 00:10 | 38.84996 | -77.03968 | 17 ft | 13 kts | 357° |
| 2026-05-06 00:10 | 38.85085 | -77.03976 | 17 ft | 13 kts | 353° |
| 2026-05-06 00:10 | 38.85149 | -77.03977 | 18 ft | 6 kts | 357° |
| 2026-05-06 00:11 | 38.85194 | -77.03985 | 18 ft | 7 kts | 359° |
| 2026-05-06 00:11 | 38.85285 | -77.04005 | 20 ft | 17 kts | 329° |
| 2026-05-06 00:11 | 38.85331 | -77.04073 | 23 ft | 14 kts | 314° |
| 2026-05-06 00:11 | 38.85367 | -77.04109 | 22 ft | 0 kts | 323° |
| 2026-05-06 00:12 | 38.85374 | -77.04115 | 22 ft | 3 kts | 328° |
| 2026-05-06 00:12 | 38.85375 | -77.04116 | 22 ft | 0 kts | 327° |